createdAt,value
2023-05-19T00:00:17.469Z,94940.00
2023-05-19T00:01:17.610Z,94942.00
2023-05-19T00:02:17.583Z,94940.00
2023-05-19T00:03:17.942Z,94942.00
2023-05-19T00:04:17.644Z,94938.00
2023-05-19T00:05:17.678Z,94942.00
2023-05-19T00:06:17.830Z,94940.00
2023-05-19T00:07:17.755Z,94938.00
2023-05-19T00:08:17.758Z,94934.00
2023-05-19T00:09:17.779Z,94938.00
2023-05-19T00:11:24.807Z,94938.00
2023-05-19T00:12:24.803Z,94936.00
2023-05-19T00:13:24.794Z,94934.00
2023-05-19T00:14:24.790Z,94934.00
2023-05-19T00:15:24.804Z,94934.00
2023-05-19T00:16:24.939Z,94934.00
2023-05-19T00:17:24.802Z,94936.00
2023-05-19T00:18:24.771Z,94936.00
2023-05-19T00:19:25.142Z,94936.00
2023-05-19T00:20:24.786Z,94934.00
2023-05-19T00:21:24.747Z,94936.00
2023-05-19T00:22:24.726Z,94936.00
2023-05-19T00:23:24.752Z,94938.00
2023-05-19T00:24:24.720Z,94938.00
2023-05-19T00:25:24.707Z,94942.00
2023-05-19T00:26:24.711Z,94938.00
2023-05-19T00:27:24.708Z,94936.00
2023-05-19T00:28:24.695Z,94936.00
2023-05-19T00:29:24.680Z,94940.00
2023-05-19T00:30:24.685Z,94938.00
2023-05-19T00:31:24.703Z,94936.00
2023-05-19T00:32:24.729Z,94940.00
2023-05-19T00:33:24.651Z,94940.00
2023-05-19T00:34:24.650Z,94940.00
2023-05-19T00:35:24.649Z,94940.00
2023-05-19T00:36:24.642Z,94934.00
2023-05-19T00:37:24.639Z,94940.00
2023-05-19T00:38:24.623Z,94936.00
2023-05-19T00:39:24.608Z,94934.00
2023-05-19T00:40:24.590Z,94936.00
2023-05-19T00:41:24.625Z,94936.00
2023-05-19T00:42:24.597Z,94938.00
2023-05-19T00:43:24.582Z,94936.00
2023-05-19T00:44:24.586Z,94934.00
2023-05-19T00:45:24.601Z,94934.00
2023-05-19T00:46:24.694Z,94934.00
2023-05-19T00:47:24.757Z,94932.00
2023-05-19T00:48:24.756Z,94932.00
2023-05-19T00:49:24.792Z,94930.00
2023-05-19T00:50:24.847Z,94930.00
2023-05-19T00:51:24.925Z,94932.00
2023-05-19T00:52:24.981Z,94928.00
2023-05-19T00:53:25.051Z,94930.00
2023-05-19T00:54:25.086Z,94928.00
2023-05-19T00:55:25.166Z,94926.00
2023-05-19T00:56:25.216Z,94926.00
2023-05-19T00:57:25.286Z,94928.00
2023-05-19T00:58:25.333Z,94926.00
2023-05-19T00:59:25.392Z,94930.00
2023-05-19T01:00:25.474Z,94930.00
2023-05-19T01:01:25.540Z,94926.00
2023-05-19T01:02:25.667Z,94928.00
2023-05-19T01:03:25.683Z,94928.00
2023-05-19T01:04:25.681Z,94928.00
2023-05-19T01:05:25.714Z,94926.00
2023-05-19T01:06:25.760Z,94926.00
2023-05-19T01:07:25.812Z,94924.00
2023-05-19T01:08:25.873Z,94924.00
2023-05-19T01:09:25.897Z,94926.00
2023-05-19T01:10:25.968Z,94922.00
2023-05-19T01:11:26.016Z,94922.00
2023-05-19T01:12:26.056Z,94924.00
2023-05-19T01:13:26.088Z,94924.00
2023-05-19T01:14:26.165Z,94928.00
2023-05-19T01:15:26.217Z,94922.00
2023-05-19T01:16:26.349Z,94922.00
2023-05-19T01:17:26.371Z,94922.00
2023-05-19T01:18:26.349Z,94924.00
2023-05-19T01:19:26.508Z,94926.00
2023-05-19T01:20:26.452Z,94926.00
2023-05-19T01:21:26.486Z,94924.00
2023-05-19T01:22:26.501Z,94924.00
2023-05-19T01:23:26.521Z,94924.00
2023-05-19T01:24:26.562Z,94924.00
2023-05-19T01:25:26.583Z,94922.00
2023-05-19T01:26:26.627Z,94924.00
2023-05-19T01:27:26.677Z,94924.00
2023-05-19T01:28:26.754Z,94922.00
2023-05-19T01:29:26.794Z,94922.00
2023-05-19T01:30:26.814Z,94926.00
2023-05-19T01:31:26.890Z,94928.00
2023-05-19T01:32:26.873Z,94926.00
2023-05-19T01:33:26.863Z,94924.00
2023-05-19T01:34:26.868Z,94926.00
2023-05-19T01:35:26.866Z,94928.00
2023-05-19T01:36:26.870Z,94926.00
2023-05-19T01:37:26.860Z,94924.00
2023-05-19T01:38:26.861Z,94926.00
2023-05-19T01:39:26.877Z,94926.00
2023-05-19T01:40:26.911Z,94928.00
2023-05-19T01:41:26.900Z,94930.00
2023-05-19T01:42:26.940Z,94930.00
2023-05-19T01:43:26.957Z,94930.00
2023-05-19T01:44:26.960Z,94930.00
2023-05-19T01:45:26.946Z,94928.00
2023-05-19T01:46:27.097Z,94928.00
2023-05-19T01:47:27.008Z,94928.00
2023-05-19T01:48:26.952Z,94932.00
2023-05-19T01:49:26.965Z,94932.00
2023-05-19T01:50:26.975Z,94932.00
2023-05-19T01:51:26.954Z,94930.00
2023-05-19T01:52:26.938Z,94928.00
2023-05-19T01:53:26.959Z,94928.00
2023-05-19T01:54:26.951Z,94928.00
2023-05-19T01:55:26.949Z,94930.00
2023-05-19T01:56:26.953Z,94930.00
2023-05-19T01:57:26.992Z,94930.00
2023-05-19T01:58:27.020Z,94930.00
2023-05-19T01:59:27.041Z,94926.00
2023-05-19T02:00:27.101Z,94928.00
2023-05-19T02:01:27.172Z,94926.00
2023-05-19T02:02:27.170Z,94928.00
2023-05-19T02:03:27.090Z,94928.00
2023-05-19T02:04:27.154Z,94926.00
2023-05-19T02:05:27.106Z,94930.00
2023-05-19T02:06:27.139Z,94932.00
2023-05-19T02:07:27.117Z,94934.00
2023-05-19T02:08:27.121Z,94936.00
2023-05-19T02:09:27.108Z,94936.00
2023-05-19T02:10:27.134Z,94934.00
2023-05-19T02:11:27.096Z,94936.00
2023-05-19T02:12:27.139Z,94934.00
2023-05-19T02:13:27.157Z,94936.00
2023-05-19T02:14:27.173Z,94930.00
2023-05-19T02:15:27.184Z,94930.00
2023-05-19T02:16:27.209Z,94930.00
2023-05-19T02:17:27.259Z,94934.00
2023-05-19T02:18:27.233Z,94934.00
2023-05-19T02:19:27.285Z,94934.00
2023-05-19T02:20:27.276Z,94934.00
2023-05-19T02:21:27.287Z,94936.00
2023-05-19T02:22:27.307Z,94936.00
2023-05-19T02:23:27.275Z,94936.00
2023-05-19T02:24:27.341Z,94934.00
2023-05-19T02:25:27.310Z,94934.00
2023-05-19T02:26:27.319Z,94930.00
2023-05-19T02:27:27.323Z,94928.00
2023-05-19T02:28:27.314Z,94930.00
2023-05-19T02:29:27.310Z,94926.00
2023-05-19T02:30:27.315Z,94930.00
2023-05-19T02:31:27.335Z,94930.00
2023-05-19T02:32:27.329Z,94930.00
2023-05-19T02:33:27.313Z,94930.00
2023-05-19T02:34:27.307Z,94930.00
2023-05-19T02:35:27.315Z,94932.00
2023-05-19T02:36:27.315Z,94930.00
2023-05-19T02:37:27.303Z,94932.00
2023-05-19T02:38:27.302Z,94932.00
2023-05-19T02:39:27.306Z,94934.00
2023-05-19T02:40:27.342Z,94932.00
2023-05-19T02:41:27.335Z,94932.00
2023-05-19T02:42:27.349Z,94936.00
2023-05-19T02:43:27.326Z,94932.00
2023-05-19T02:44:27.335Z,94938.00
2023-05-19T02:45:27.326Z,94938.00
2023-05-19T02:46:27.339Z,94930.00
2023-05-19T02:47:27.389Z,94930.00
2023-05-19T02:48:27.328Z,94928.00
2023-05-19T02:49:27.329Z,94930.00
2023-05-19T02:50:27.365Z,94928.00
2023-05-19T02:51:27.335Z,94928.00
2023-05-19T02:52:27.335Z,94928.00
2023-05-19T02:53:27.347Z,94926.00
2023-05-19T02:54:27.354Z,94928.00
2023-05-19T02:55:27.339Z,94926.00
2023-05-19T02:56:27.361Z,94926.00
2023-05-19T02:57:27.363Z,94926.00
2023-05-19T02:58:27.403Z,94924.00
2023-05-19T02:59:27.396Z,94924.00
2023-05-19T03:00:27.418Z,94922.00
2023-05-19T03:01:27.413Z,94924.00
2023-05-19T03:02:27.505Z,94918.00
2023-05-19T03:03:27.503Z,94918.00
2023-05-19T03:04:27.496Z,94920.00
2023-05-19T03:05:27.497Z,94916.00
2023-05-19T03:06:27.479Z,94918.00
2023-05-19T03:07:27.514Z,94914.00
2023-05-19T03:08:27.521Z,94912.00
2023-05-19T03:09:27.532Z,94912.00
2023-05-19T03:10:27.556Z,94910.00
2023-05-19T03:11:27.568Z,94910.00
2023-05-19T03:12:27.596Z,94912.00
2023-05-19T03:13:27.578Z,94914.00
2023-05-19T03:14:27.588Z,94912.00
2023-05-19T03:15:27.619Z,94912.00
2023-05-19T03:16:27.645Z,94912.00
2023-05-19T03:17:27.714Z,94914.00
2023-05-19T03:18:27.687Z,94912.00
2023-05-19T03:19:27.821Z,94912.00
2023-05-19T03:20:27.773Z,94910.00
2023-05-19T03:21:27.798Z,94912.00
2023-05-19T03:22:27.833Z,94912.00
2023-05-19T03:23:27.854Z,94912.00
2023-05-19T03:24:27.843Z,94910.00
2023-05-19T03:25:27.869Z,94912.00
2023-05-19T03:26:27.880Z,94908.00
2023-05-19T03:27:27.890Z,94908.00
2023-05-19T03:28:27.887Z,94908.00
2023-05-19T03:29:27.890Z,94910.00
2023-05-19T03:30:27.919Z,94906.00
2023-05-19T03:31:27.912Z,94908.00
2023-05-19T03:32:27.974Z,94910.00
2023-05-19T03:33:28.080Z,94906.00
2023-05-19T03:34:27.952Z,94906.00
2023-05-19T03:35:27.966Z,94910.00
2023-05-19T03:36:27.981Z,94910.00
2023-05-19T03:37:28.020Z,94910.00
2023-05-19T03:38:28.022Z,94910.00
2023-05-19T03:39:28.052Z,94910.00
2023-05-19T03:40:28.043Z,94906.00
2023-05-19T03:41:28.560Z,94908.00
2023-05-19T03:42:28.099Z,94904.00
2023-05-19T03:43:28.114Z,94906.00
2023-05-19T03:44:28.154Z,94902.00
2023-05-19T03:45:28.197Z,94904.00
2023-05-19T03:46:28.513Z,94902.00
2023-05-19T03:47:28.257Z,94904.00
2023-05-19T03:48:28.291Z,94902.00
2023-05-19T03:49:28.301Z,94904.00
2023-05-19T03:50:28.349Z,94902.00
2023-05-19T03:51:28.376Z,94901.00
2023-05-19T03:52:28.416Z,94904.00
2023-05-19T03:53:28.433Z,94902.00
2023-05-19T03:54:28.453Z,94902.00
2023-05-19T03:55:28.456Z,94904.00
2023-05-19T03:56:28.480Z,94904.00
2023-05-19T03:57:28.495Z,94904.00
2023-05-19T03:58:28.530Z,94904.00
2023-05-19T03:59:28.532Z,94904.00
2023-05-19T04:00:28.546Z,94906.00
2023-05-19T04:01:28.580Z,94904.00
2023-05-19T04:02:28.679Z,94904.00
2023-05-19T04:03:28.658Z,94906.00
2023-05-19T04:04:28.717Z,94902.00
2023-05-19T04:05:28.655Z,94904.00
2023-05-19T04:06:28.672Z,94904.00
2023-05-19T04:07:28.703Z,94902.00
2023-05-19T04:08:28.721Z,94904.00
2023-05-19T04:09:28.754Z,94904.00
2023-05-19T04:10:28.786Z,94906.00
2023-05-19T04:11:28.796Z,94904.00
2023-05-19T04:12:28.805Z,94904.00
2023-05-19T04:13:28.855Z,94904.00
2023-05-19T04:14:28.870Z,94908.00
2023-05-19T04:15:29.001Z,94908.00
2023-05-19T04:16:28.988Z,94908.00
2023-05-19T04:17:28.951Z,94908.00
2023-05-19T04:18:29.372Z,94906.00
2023-05-19T04:19:29.024Z,94906.00
2023-05-19T04:20:28.944Z,94910.00
2023-05-19T04:21:28.947Z,94908.00
2023-05-19T04:22:28.986Z,94908.00
2023-05-19T04:23:28.999Z,94910.00
2023-05-19T04:24:28.993Z,94912.00
2023-05-19T04:25:29.028Z,94914.00
2023-05-19T04:26:29.053Z,94916.00
2023-05-19T04:27:29.083Z,94918.00
2023-05-19T04:28:29.084Z,94920.00
2023-05-19T04:29:29.082Z,94918.00
2023-05-19T04:30:29.132Z,94918.00
2023-05-19T04:31:29.137Z,94914.00
2023-05-19T04:32:29.178Z,94916.00
2023-05-19T04:33:29.149Z,94916.00
2023-05-19T04:34:29.152Z,94918.00
2023-05-19T04:35:29.134Z,94918.00
2023-05-19T04:36:29.161Z,94918.00
2023-05-19T04:37:29.151Z,94922.00
2023-05-19T04:38:29.175Z,94922.00
2023-05-19T04:39:29.190Z,94926.00
2023-05-19T04:40:29.190Z,94922.00
2023-05-19T04:41:29.244Z,94924.00
2023-05-19T04:42:29.257Z,94920.00
2023-05-19T04:43:29.285Z,94922.00
2023-05-19T04:44:29.284Z,94926.00
2023-05-19T04:45:29.311Z,94924.00
2023-05-19T04:46:29.333Z,94922.00
2023-05-19T04:47:52.239Z,94924.00
2023-05-19T04:48:52.137Z,94926.00
2023-05-19T04:49:52.116Z,94926.00
2023-05-19T04:50:52.127Z,94922.00
2023-05-19T04:51:53.367Z,94924.00
2023-05-19T04:52:52.092Z,94924.00
2023-05-19T04:53:52.120Z,94928.00
2023-05-19T04:54:52.079Z,94926.00
2023-05-19T04:55:52.194Z,94924.00
2023-05-19T04:56:52.089Z,94924.00
2023-05-19T04:57:52.075Z,94922.00
2023-05-19T04:58:52.075Z,94930.00
2023-05-19T04:59:52.056Z,94924.00
2023-05-19T05:00:52.049Z,94926.00
2023-05-19T05:01:52.085Z,94926.00
2023-05-19T05:02:52.110Z,94924.00
2023-05-19T05:03:52.038Z,94924.00
2023-05-19T05:04:52.016Z,94924.00
2023-05-19T05:05:52.004Z,94920.00
2023-05-19T05:06:52.047Z,94924.00
2023-05-19T05:09:11.284Z,94920.00
2023-05-19T05:10:11.274Z,94922.00
2023-05-19T05:11:11.271Z,94918.00
2023-05-19T05:12:11.255Z,94922.00
2023-05-19T05:13:11.998Z,94920.00
2023-05-19T05:14:11.254Z,94920.00
2023-05-19T05:15:11.251Z,94922.00
2023-05-19T05:16:11.331Z,94924.00
2023-05-19T05:17:11.229Z,94926.00
2023-05-19T05:18:11.321Z,94928.00
2023-05-19T05:19:11.263Z,94930.00
2023-05-19T05:20:11.222Z,94928.00
2023-05-19T05:21:11.228Z,94930.00
2023-05-19T05:22:11.219Z,94928.00
2023-05-19T05:23:11.191Z,94924.00
2023-05-19T05:24:11.169Z,94924.00
2023-05-19T05:25:11.182Z,94922.00
2023-05-19T05:26:11.203Z,94924.00
2023-05-19T05:27:11.149Z,94924.00
2023-05-19T05:28:11.157Z,94926.00
2023-05-19T05:30:30.448Z,94924.00
2023-05-19T05:31:30.443Z,94924.00
2023-05-19T05:32:30.496Z,94922.00
2023-05-19T05:33:30.484Z,94924.00
2023-05-19T05:34:30.414Z,94920.00
2023-05-19T05:35:30.536Z,94920.00
2023-05-19T05:36:30.390Z,94918.00
2023-05-19T05:37:30.380Z,94914.00
2023-05-19T05:38:30.388Z,94916.00
2023-05-19T05:39:30.403Z,94918.00
2023-05-19T05:40:30.385Z,94918.00
2023-05-19T05:41:30.383Z,94916.00
2023-05-19T05:42:30.365Z,94920.00
2023-05-19T05:43:30.348Z,94920.00
2023-05-19T05:44:30.365Z,94920.00
2023-05-19T05:45:30.465Z,94918.00
2023-05-19T05:46:30.406Z,94920.00
2023-05-19T05:47:30.379Z,94918.00
2023-05-19T05:48:30.321Z,94918.00
2023-05-19T05:49:30.327Z,94918.00
2023-05-19T05:50:30.320Z,94916.00
2023-05-19T05:51:30.360Z,94920.00
2023-05-19T05:52:30.318Z,94918.00
2023-05-19T05:53:30.290Z,94922.00
2023-05-19T05:54:30.276Z,94920.00
2023-05-19T05:55:30.474Z,94922.00
2023-05-19T05:56:30.292Z,94920.00
2023-05-19T05:57:30.289Z,94916.00
2023-05-19T05:58:30.270Z,94922.00
2023-05-19T05:59:30.275Z,94920.00
2023-05-19T06:00:30.478Z,94922.00
2023-05-19T06:01:30.355Z,94922.00
2023-05-19T06:02:30.441Z,94920.00
2023-05-19T06:03:30.449Z,94920.00
2023-05-19T06:04:30.484Z,94922.00
2023-05-19T06:05:30.548Z,94920.00
2023-05-19T06:06:30.556Z,94920.00
2023-05-19T06:07:30.596Z,94920.00
2023-05-19T06:08:30.634Z,94918.00
2023-05-19T06:09:30.666Z,94914.00
2023-05-19T06:10:30.808Z,94914.00
2023-05-19T06:11:30.740Z,94916.00
2023-05-19T06:12:30.797Z,94916.00
2023-05-19T06:13:30.813Z,94916.00
2023-05-19T06:14:30.819Z,94916.00
2023-05-19T06:15:30.877Z,94918.00
2023-05-19T06:16:30.946Z,94914.00
2023-05-19T06:17:30.905Z,94914.00
2023-05-19T06:18:30.889Z,94912.00
2023-05-19T06:19:30.978Z,94912.00
2023-05-19T06:20:31.148Z,94914.00
2023-05-19T06:21:30.973Z,94916.00
2023-05-19T06:22:30.969Z,94914.00
2023-05-19T06:23:30.990Z,94916.00
2023-05-19T06:24:31.034Z,94918.00
2023-05-19T06:25:31.142Z,94918.00
2023-05-19T06:26:31.030Z,94916.00
2023-05-19T06:27:32.628Z,94918.00
2023-05-19T06:28:31.047Z,94918.00
2023-05-19T06:29:31.040Z,94918.00
2023-05-19T06:30:31.184Z,94914.00
2023-05-19T06:31:31.107Z,94914.00
2023-05-19T06:32:31.023Z,94912.00
2023-05-19T06:33:31.022Z,94912.00
2023-05-19T06:34:30.985Z,94910.00
2023-05-19T06:35:31.002Z,94906.00
2023-05-19T06:36:31.005Z,94906.00
2023-05-19T06:37:30.978Z,94904.00
2023-05-19T06:38:30.973Z,94904.00
2023-05-19T06:39:30.988Z,94906.00
2023-05-19T06:40:31.158Z,94902.00
2023-05-19T06:41:30.969Z,94902.00
2023-05-19T06:42:30.964Z,94902.00
2023-05-19T06:43:30.932Z,94902.00
2023-05-19T06:44:30.916Z,94904.00
2023-05-19T06:45:30.910Z,94904.00
2023-05-19T06:46:31.012Z,94902.00
2023-05-19T06:47:30.943Z,94902.00
2023-05-19T06:48:30.893Z,94904.00
2023-05-19T06:49:30.886Z,94906.00
2023-05-19T06:50:31.184Z,94904.00
2023-05-19T06:51:30.891Z,94902.00
2023-05-19T06:52:30.877Z,94904.00
2023-05-19T06:53:30.867Z,94904.00
2023-05-19T06:54:30.844Z,94906.00
2023-05-19T06:55:30.856Z,94906.00
2023-05-19T06:56:30.842Z,94904.00
2023-05-19T06:57:30.852Z,94904.00
2023-05-19T06:58:30.836Z,94902.00
2023-05-19T06:59:30.845Z,94902.00
2023-05-19T07:00:30.835Z,94902.00
2023-05-19T07:01:30.948Z,94901.00
2023-05-19T07:02:30.998Z,94902.00
2023-05-19T07:03:30.898Z,94904.00
2023-05-19T07:04:30.821Z,94901.00
2023-05-19T07:05:30.782Z,94902.00
2023-05-19T07:06:30.808Z,94901.00
2023-05-19T07:07:30.801Z,94901.00
2023-05-19T07:08:30.763Z,94899.00
2023-05-19T07:09:30.769Z,94899.00
2023-05-19T07:10:31.023Z,94899.00
2023-05-19T07:11:30.742Z,94897.00
2023-05-19T07:12:30.758Z,94902.00
2023-05-19T07:13:30.740Z,94897.00
2023-05-19T07:14:30.718Z,94897.00
2023-05-19T07:15:30.729Z,94897.00
2023-05-19T07:16:30.805Z,94895.00
2023-05-19T07:17:30.727Z,94893.00
2023-05-19T07:18:30.699Z,94891.00
2023-05-19T07:19:30.766Z,94893.00
2023-05-19T07:20:30.871Z,94889.00
2023-05-19T07:21:30.670Z,94889.00
2023-05-19T07:22:30.673Z,94891.00
2023-05-19T07:23:30.669Z,94889.00
2023-05-19T07:24:30.684Z,94887.00
2023-05-19T07:25:30.672Z,94879.00
2023-05-19T07:26:30.669Z,94877.00
2023-05-19T07:27:30.642Z,94877.00
2023-05-19T07:28:30.690Z,94873.00
2023-05-19T07:29:30.621Z,94871.00
2023-05-19T07:30:30.808Z,94871.00
2023-05-19T07:31:30.675Z,94867.00
2023-05-19T07:32:30.617Z,94867.00
2023-05-19T07:33:30.584Z,94867.00
2023-05-19T07:34:30.595Z,94865.00
2023-05-19T07:35:30.563Z,94865.00
2023-05-19T07:36:30.593Z,94865.00
2023-05-19T07:37:30.556Z,94863.00
2023-05-19T07:38:30.577Z,94861.00
2023-05-19T07:39:30.535Z,94863.00
2023-05-19T07:40:30.744Z,94859.00
2023-05-19T07:41:30.528Z,94861.00
2023-05-19T07:42:30.523Z,94859.00
2023-05-19T07:43:30.521Z,94857.00
2023-05-19T07:44:30.530Z,94857.00
2023-05-19T07:45:30.498Z,94853.00
2023-05-19T07:46:30.598Z,94851.00
2023-05-19T07:47:30.509Z,94851.00
2023-05-19T07:48:30.495Z,94853.00
2023-05-19T07:49:30.460Z,94851.00
2023-05-19T07:50:30.592Z,94849.00
2023-05-19T07:51:30.477Z,94846.00
2023-05-19T07:52:30.459Z,94848.00
2023-05-19T07:53:30.458Z,94846.00
2023-05-19T07:54:30.454Z,94848.00
2023-05-19T07:55:30.444Z,94846.00
2023-05-19T07:56:30.434Z,94846.00
2023-05-19T07:57:30.407Z,94846.00
2023-05-19T07:58:30.413Z,94846.00
2023-05-19T07:59:30.462Z,94842.00
2023-05-19T08:00:30.543Z,94844.00
2023-05-19T08:01:30.592Z,94842.00
2023-05-19T08:02:30.636Z,94842.00
2023-05-19T08:03:30.916Z,94844.00
2023-05-19T08:04:30.770Z,94840.00
2023-05-19T08:05:30.797Z,94844.00
2023-05-19T08:06:30.908Z,94840.00
2023-05-19T08:07:30.880Z,94838.00
2023-05-19T08:08:30.940Z,94840.00
2023-05-19T08:09:30.993Z,94840.00
2023-05-19T08:10:31.361Z,94840.00
2023-05-19T08:11:31.083Z,94838.00
2023-05-19T08:12:31.148Z,94836.00
2023-05-19T08:13:31.199Z,94836.00
2023-05-19T08:14:31.229Z,94834.00
2023-05-19T08:15:31.295Z,94834.00
2023-05-19T08:16:31.367Z,94832.00
2023-05-19T08:17:31.358Z,94830.00
2023-05-19T08:18:31.418Z,94832.00
2023-05-19T08:19:31.458Z,94830.00
2023-05-19T08:20:31.594Z,94830.00
2023-05-19T08:21:31.486Z,94826.00
2023-05-19T08:22:31.457Z,94824.00
2023-05-19T08:23:31.465Z,94824.00
2023-05-19T08:24:31.480Z,94824.00
2023-05-19T08:25:31.462Z,94820.00
2023-05-19T08:26:31.496Z,94820.00
2023-05-19T08:27:31.490Z,94816.00
2023-05-19T08:28:31.498Z,94818.00
2023-05-19T08:29:31.525Z,94818.00
2023-05-19T08:30:31.742Z,94816.00
2023-05-19T08:31:31.663Z,94818.00
2023-05-19T08:32:31.691Z,94812.00
2023-05-19T08:33:31.685Z,94812.00
2023-05-19T08:34:31.699Z,94808.00
2023-05-19T08:35:31.771Z,94812.00
2023-05-19T08:36:31.730Z,94814.00
2023-05-19T08:37:33.355Z,94810.00
2023-05-19T08:38:31.724Z,94810.00
2023-05-19T08:39:31.727Z,94808.00
2023-05-19T08:40:32.026Z,94810.00
2023-05-19T08:41:31.766Z,94810.00
2023-05-19T08:42:31.729Z,94810.00
2023-05-19T08:43:31.751Z,94812.00
2023-05-19T08:44:31.746Z,94810.00
2023-05-19T08:45:31.939Z,94814.00
2023-05-19T08:46:31.806Z,94814.00
2023-05-19T08:47:31.779Z,94814.00
2023-05-19T08:48:31.757Z,94814.00
2023-05-19T08:49:31.777Z,94814.00
2023-05-19T08:50:31.942Z,94814.00
2023-05-19T08:51:31.759Z,94814.00
2023-05-19T08:52:31.763Z,94808.00
2023-05-19T08:53:34.219Z,94810.00
2023-05-19T08:54:31.760Z,94810.00
2023-05-19T08:55:31.942Z,94808.00
2023-05-19T08:56:31.756Z,94806.00
2023-05-19T08:57:31.766Z,94806.00
2023-05-19T08:58:31.731Z,94801.00
2023-05-19T08:59:31.733Z,94804.00
2023-05-19T09:00:31.974Z,94799.00
2023-05-19T09:01:31.835Z,94801.00
2023-05-19T09:02:31.741Z,94793.00
2023-05-19T09:03:31.772Z,94795.00
2023-05-19T09:04:31.759Z,94793.00
2023-05-19T09:05:31.954Z,94791.00
2023-05-19T09:06:31.709Z,94791.00
2023-05-19T09:07:31.698Z,94791.00
2023-05-19T09:08:31.689Z,94787.00
2023-05-19T09:09:31.658Z,94787.00
2023-05-19T09:10:31.669Z,94785.00
2023-05-19T09:11:31.654Z,94783.00
2023-05-19T09:12:31.678Z,94783.00
2023-05-19T09:13:31.673Z,94777.00
2023-05-19T09:14:31.642Z,94777.00
2023-05-19T09:15:31.882Z,94775.00
2023-05-19T09:16:31.664Z,94779.00
2023-05-19T09:17:31.684Z,94773.00
2023-05-19T09:18:31.600Z,94773.00
2023-05-19T09:19:31.620Z,94773.00
2023-05-19T09:20:31.594Z,94771.00
2023-05-19T09:21:31.652Z,94771.00
2023-05-19T09:22:31.600Z,94769.00
2023-05-19T09:23:31.572Z,94767.00
2023-05-19T09:24:31.558Z,94769.00
2023-05-19T09:25:31.775Z,94767.00
2023-05-19T09:26:31.536Z,94767.00
2023-05-19T09:27:31.569Z,94763.00
2023-05-19T09:28:31.547Z,94761.00
2023-05-19T09:29:31.539Z,94761.00
2023-05-19T09:30:31.532Z,94763.00
2023-05-19T09:31:31.556Z,94761.00
2023-05-19T09:32:31.597Z,94761.00
2023-05-19T09:33:31.521Z,94763.00
2023-05-19T09:34:31.518Z,94761.00
2023-05-19T09:35:31.585Z,94759.00
2023-05-19T09:36:31.491Z,94754.00
2023-05-19T09:37:31.484Z,94755.00
2023-05-19T09:38:31.460Z,94754.00
2023-05-19T09:39:31.456Z,94754.00
2023-05-19T09:40:31.445Z,94754.00
2023-05-19T09:41:31.454Z,94752.00
2023-05-19T09:42:31.526Z,94748.00
2023-05-19T09:43:31.436Z,94746.00
2023-05-19T09:44:31.434Z,94748.00
2023-05-19T09:45:31.669Z,94744.00
2023-05-19T09:46:31.490Z,94744.00
2023-05-19T09:47:31.421Z,94740.00
2023-05-19T09:48:31.426Z,94742.00
2023-05-19T09:49:31.457Z,94740.00
2023-05-19T09:50:31.413Z,94738.00
2023-05-19T09:51:31.381Z,94736.00
2023-05-19T09:52:31.370Z,94736.00
2023-05-19T09:53:31.399Z,94730.00
2023-05-19T09:54:31.372Z,94726.00
2023-05-19T09:55:31.459Z,94728.00
2023-05-19T09:56:31.336Z,94724.00
2023-05-19T09:57:31.337Z,94724.00
2023-05-19T09:58:31.337Z,94724.00
2023-05-19T09:59:33.470Z,94726.00
2023-05-19T10:00:31.616Z,94724.00
2023-05-19T10:01:31.591Z,94720.00
2023-05-19T10:02:31.616Z,94716.00
2023-05-19T10:03:31.615Z,94714.00
2023-05-19T10:04:31.752Z,94714.00
2023-05-19T10:05:31.893Z,94714.00
2023-05-19T10:06:31.779Z,94708.00
2023-05-19T10:07:31.874Z,94707.00
2023-05-19T10:08:31.958Z,94703.00
2023-05-19T10:09:31.973Z,94701.00
2023-05-19T10:10:32.049Z,94697.00
2023-05-19T10:11:32.083Z,94697.00
2023-05-19T10:12:32.145Z,94697.00
2023-05-19T10:13:32.176Z,94695.00
2023-05-19T10:14:32.177Z,94695.00
2023-05-19T10:15:33.156Z,94697.00
2023-05-19T10:16:32.204Z,94695.00
2023-05-19T10:17:32.237Z,94695.00
2023-05-19T10:18:32.157Z,94695.00
2023-05-19T10:19:32.276Z,94693.00
2023-05-19T10:20:32.357Z,94695.00
2023-05-19T10:21:32.136Z,94695.00
2023-05-19T10:22:32.145Z,94691.00
2023-05-19T10:23:32.149Z,94689.00
2023-05-19T10:24:32.110Z,94691.00
2023-05-19T10:25:32.295Z,94689.00
2023-05-19T10:26:32.111Z,94687.00
2023-05-19T10:27:32.084Z,94685.00
2023-05-19T10:28:32.071Z,94683.00
2023-05-19T10:29:32.097Z,94685.00
2023-05-19T10:30:32.088Z,94685.00
2023-05-19T10:31:32.153Z,94683.00
2023-05-19T10:32:32.153Z,94683.00
2023-05-19T10:33:32.040Z,94681.00
2023-05-19T10:34:32.061Z,94683.00
2023-05-19T10:35:32.543Z,94679.00
2023-05-19T10:36:32.058Z,94675.00
2023-05-19T10:37:32.034Z,94677.00
2023-05-19T10:38:32.022Z,94669.00
2023-05-19T10:39:31.998Z,94667.00
2023-05-19T10:40:31.998Z,94669.00
2023-05-19T10:41:32.041Z,94661.00
2023-05-19T10:42:31.998Z,94661.00
2023-05-19T10:43:31.990Z,94661.00
2023-05-19T10:44:31.989Z,94657.00
2023-05-19T10:45:32.180Z,94659.00
2023-05-19T10:46:32.134Z,94659.00
2023-05-19T10:47:31.982Z,94657.00
2023-05-19T10:48:31.940Z,94659.00
2023-05-19T10:49:31.939Z,94657.00
2023-05-19T10:50:31.949Z,94655.00
2023-05-19T10:51:31.953Z,94653.00
2023-05-19T10:52:31.914Z,94650.00
2023-05-19T10:53:31.931Z,94652.00
2023-05-19T10:54:31.916Z,94652.00
2023-05-19T10:55:32.073Z,94648.00
2023-05-19T10:56:31.974Z,94650.00
2023-05-19T10:57:32.020Z,94648.00
2023-05-19T10:58:32.008Z,94646.00
2023-05-19T10:59:32.091Z,94648.00
2023-05-19T11:00:32.074Z,94646.00
2023-05-19T11:01:32.063Z,94648.00
2023-05-19T11:02:32.163Z,94644.00
2023-05-19T11:03:32.217Z,94648.00
2023-05-19T11:04:32.338Z,94642.00
2023-05-19T11:05:32.525Z,94646.00
2023-05-19T11:06:32.384Z,94640.00
2023-05-19T11:07:32.417Z,94642.00
2023-05-19T11:08:32.442Z,94642.00
2023-05-19T11:09:39.864Z,94640.00
2023-05-19T11:10:33.484Z,94642.00
2023-05-19T11:11:33.214Z,94640.00
2023-05-19T11:12:32.459Z,94642.00
2023-05-19T11:13:32.440Z,94640.00
2023-05-19T11:14:32.446Z,94640.00
2023-05-19T11:15:32.630Z,94638.00
2023-05-19T11:16:32.537Z,94634.00
2023-05-19T11:17:33.215Z,94638.00
2023-05-19T11:18:32.432Z,94636.00
2023-05-19T11:19:32.395Z,94634.00
2023-05-19T11:20:32.402Z,94630.00
2023-05-19T11:21:32.506Z,94634.00
2023-05-19T11:22:32.445Z,94632.00
2023-05-19T11:23:33.477Z,94620.00
2023-05-19T11:24:32.476Z,94632.00
2023-05-19T11:25:32.585Z,94622.00
2023-05-19T11:26:32.456Z,94620.00
2023-05-19T11:27:32.436Z,94618.00
2023-05-19T11:28:32.421Z,94622.00
2023-05-19T11:29:34.212Z,94618.00
2023-05-19T11:30:32.419Z,94618.00
2023-05-19T11:31:32.424Z,94612.00
2023-05-19T11:32:32.528Z,94612.00
2023-05-19T11:33:32.394Z,94610.00
2023-05-19T11:34:32.400Z,94607.00
2023-05-19T11:35:34.683Z,94608.00
2023-05-19T11:36:32.402Z,94607.00
2023-05-19T11:37:32.434Z,94605.00
2023-05-19T11:38:32.394Z,94603.00
2023-05-19T11:39:32.369Z,94607.00
2023-05-19T11:40:32.361Z,94603.00
2023-05-19T11:41:32.362Z,94599.00
2023-05-19T11:42:32.415Z,94599.00
2023-05-19T11:43:32.341Z,94595.00
2023-05-19T11:44:32.363Z,94595.00
2023-05-19T11:45:32.512Z,94591.00
2023-05-19T11:46:32.356Z,94587.00
2023-05-19T11:47:42.064Z,94589.00
2023-05-19T11:48:33.348Z,94581.00